EAG5518 SBPL-SBKP
Flight info
| Callsign | EAG5518 |
|---|---|
| Flight time | 2h 9m |
| Altitude | 36000 |
| Route | EDMUP UZ61 USVOL UZ30 ENTIT |
| Aircraft | A320/M-SDE3FGHIRWY/LB1 |
Departure
| Time | 2026-04-26 14:52 |
|---|---|
| Airport | Senador Nilo Coelho Airport (SBPL) |
Arrival
| Time | 2026-04-26 17:01 |
|---|---|
| Airport | Viracopos International Airport (SBKP) |
| Time | Latitude | Longitude | Altitude | Speed | Heading |
|---|---|---|---|---|---|
| 2026-04-26 14:34 | -9.36591 | -40.56557 | 1269 ft | 0 kts | 199° |
| 2026-04-26 14:42 | -9.36576 | -40.56551 | 1276 ft | 4 kts | 204° |
| 2026-04-26 14:43 | -9.36556 | -40.56537 | 1273 ft | 4 kts | 251° |
| 2026-04-26 14:43 | -9.36554 | -40.56526 | 1269 ft | 0 kts | 289° |
| 2026-04-26 14:46 | -9.36553 | -40.56530 | 1271 ft | 4 kts | 289° |
| 2026-04-26 14:46 | -9.36540 | -40.56568 | 1271 ft | 5 kts | 289° |
| 2026-04-26 14:46 | -9.36521 | -40.56586 | 1276 ft | 2 kts | 342° |
| 2026-04-26 14:47 | -9.36510 | -40.56586 | 1273 ft | 1 kts | 0° |
| 2026-04-26 14:47 | -9.36492 | -40.56583 | 1271 ft | 5 kts | 11° |
| 2026-04-26 14:47 | -9.36466 | -40.56575 | 1273 ft | 3 kts | 19° |
| 2026-04-26 14:47 | -9.36420 | -40.56558 | 1270 ft | 14 kts | 14° |
| 2026-04-26 14:48 | -9.36352 | -40.56611 | 1271 ft | 14 kts | 290° |
| 2026-04-26 14:48 | -9.36312 | -40.56729 | 1273 ft | 19 kts | 289° |
| 2026-04-26 14:48 | -9.36267 | -40.56859 | 1272 ft | 20 kts | 289° |
| 2026-04-26 14:48 | -9.36218 | -40.57002 | 1271 ft | 22 kts | 289° |
| 2026-04-26 14:49 | -9.36169 | -40.57147 | 1270 ft | 23 kts | 289° |
| 2026-04-26 14:49 | -9.36115 | -40.57305 | 1272 ft | 24 kts | 289° |
| 2026-04-26 14:49 | -9.36059 | -40.57467 | 1274 ft | 25 kts | 289° |
| 2026-04-26 14:49 | -9.36002 | -40.57632 | 1272 ft | 26 kts | 289° |
| 2026-04-26 14:50 | -9.35943 | -40.57805 | 1271 ft | 26 kts | 289° |
| 2026-04-26 14:50 | -9.35893 | -40.57952 | 1269 ft | 17 kts | 289° |
| 2026-04-26 14:50 | -9.35896 | -40.58044 | 1268 ft | 11 kts | 255° |
| 2026-04-26 14:50 | -9.35872 | -40.58046 | 1268 ft | 7 kts | 55° |
| 2026-04-26 14:51 | -9.35890 | -40.57962 | 1269 ft | 14 kts | 109° |
| 2026-04-26 14:51 | -9.35965 | -40.57742 | 1270 ft | 69 kts | 109° |
| 2026-04-26 14:51 | -9.36210 | -40.57029 | 1271 ft | 142 kts | 109° |
| 2026-04-26 14:51 | -9.36590 | -40.55922 | 1463 ft | 180 kts | 109° |
| 2026-04-26 14:52 | -9.37023 | -40.54679 | 2111 ft | 193 kts | 110° |
| 2026-04-26 14:52 | -9.37465 | -40.53405 | 3009 ft | 190 kts | 109° |
| 2026-04-26 14:52 | -9.37921 | -40.52096 | 3328 ft | 206 kts | 110° |
| 2026-04-26 14:52 | -9.38665 | -40.50800 | 3572 ft | 225 kts | 137° |
| 2026-04-26 14:53 | -9.40108 | -40.50057 | 3863 ft | 248 kts | 173° |
| 2026-04-26 14:53 | -9.41898 | -40.50003 | 4359 ft | 264 kts | 181° |
| 2026-04-26 14:53 | -9.43760 | -40.50034 | 5159 ft | 269 kts | 182° |
| 2026-04-26 14:53 | -9.45642 | -40.50078 | 5978 ft | 272 kts | 182° |
| 2026-04-26 14:54 | -9.47550 | -40.50120 | 6787 ft | 276 kts | 181° |
| 2026-04-26 14:54 | -9.49459 | -40.50157 | 7571 ft | 279 kts | 181° |
| 2026-04-26 14:54 | -9.51416 | -40.50191 | 8352 ft | 283 kts | 181° |
| 2026-04-26 14:54 | -9.53416 | -40.50224 | 9128 ft | 286 kts | 181° |
| 2026-04-26 14:55 | -9.55416 | -40.50255 | 9865 ft | 289 kts | 181° |
| 2026-04-26 14:55 | -9.57465 | -40.50285 | 10338 ft | 305 kts | 181° |
| 2026-04-26 14:55 | -9.59674 | -40.50317 | 10531 ft | 328 kts | 181° |
| 2026-04-26 14:55 | -9.62002 | -40.50347 | 10667 ft | 351 kts | 181° |
| 2026-04-26 14:56 | -9.64494 | -40.50382 | 11031 ft | 363 kts | 181° |
| 2026-04-26 14:56 | -9.67041 | -40.50436 | 11639 ft | 368 kts | 184° |
| 2026-04-26 14:56 | -9.69583 | -40.50851 | 12269 ft | 372 kts | 195° |
| 2026-04-26 14:56 | -9.72045 | -40.51705 | 12895 ft | 375 kts | 200° |
| 2026-04-26 14:57 | -9.74505 | -40.52624 | 13508 ft | 378 kts | 200° |
| 2026-04-26 14:57 | -9.76992 | -40.53544 | 14105 ft | 382 kts | 200° |
| 2026-04-26 14:57 | -9.79501 | -40.54464 | 14680 ft | 385 kts | 200° |
| 2026-04-26 14:57 | -9.82031 | -40.55388 | 15241 ft | 388 kts | 200° |
| 2026-04-26 14:58 | -9.84588 | -40.56321 | 15789 ft | 391 kts | 200° |
| 2026-04-26 14:58 | -9.87127 | -40.57247 | 16309 ft | 395 kts | 200° |
| 2026-04-26 14:58 | -9.89723 | -40.58198 | 16828 ft | 397 kts | 200° |
| 2026-04-26 14:58 | -9.92336 | -40.59157 | 17317 ft | 400 kts | 200° |
| 2026-04-26 14:59 | -9.94960 | -40.60123 | 17802 ft | 403 kts | 200° |
| 2026-04-26 14:59 | -9.97612 | -40.61101 | 18274 ft | 406 kts | 200° |
| 2026-04-26 14:59 | -10.00274 | -40.62085 | 18750 ft | 409 kts | 200° |
| 2026-04-26 14:59 | -10.02048 | -40.62739 | 19042 ft | 411 kts | 200° |
| 2026-04-26 15:00 | -10.05663 | -40.64062 | 19647 ft | 414 kts | 200° |
| 2026-04-26 15:00 | -10.08385 | -40.65058 | 20074 ft | 417 kts | 200° |
| 2026-04-26 15:00 | -10.11121 | -40.66063 | 20504 ft | 420 kts | 200° |
| 2026-04-26 15:00 | -10.13879 | -40.67078 | 20916 ft | 422 kts | 200° |
| 2026-04-26 15:01 | -10.16651 | -40.68099 | 21320 ft | 425 kts | 200° |
| 2026-04-26 15:01 | -10.19442 | -40.69127 | 21720 ft | 427 kts | 200° |
| 2026-04-26 15:01 | -10.22251 | -40.70164 | 22103 ft | 430 kts | 200° |
| 2026-04-26 15:01 | -10.25038 | -40.71190 | 22470 ft | 432 kts | 200° |
| 2026-04-26 15:02 | -10.27876 | -40.72234 | 22835 ft | 435 kts | 200° |
| 2026-04-26 15:02 | -10.30721 | -40.73284 | 23187 ft | 437 kts | 200° |
| 2026-04-26 15:02 | -10.33586 | -40.74343 | 23522 ft | 439 kts | 200° |
| 2026-04-26 15:02 | -10.36467 | -40.75406 | 23864 ft | 441 kts | 200° |
| 2026-04-26 15:03 | -10.39355 | -40.76472 | 24196 ft | 444 kts | 200° |
| 2026-04-26 15:03 | -10.42264 | -40.77548 | 24521 ft | 446 kts | 200° |
| 2026-04-26 15:03 | -10.45191 | -40.78628 | 24838 ft | 448 kts | 200° |
| 2026-04-26 15:03 | -10.48131 | -40.79713 | 25154 ft | 450 kts | 200° |
| 2026-04-26 15:04 | -10.51079 | -40.80800 | 25454 ft | 452 kts | 200° |
| 2026-04-26 15:04 | -10.53044 | -40.81523 | 25636 ft | 454 kts | 200° |
| 2026-04-26 15:04 | -10.56017 | -40.82616 | 25930 ft | 456 kts | 200° |
| 2026-04-26 15:04 | -10.59007 | -40.83719 | 26209 ft | 457 kts | 200° |
| 2026-04-26 15:05 | -10.61998 | -40.84825 | 26478 ft | 459 kts | 200° |
| 2026-04-26 15:05 | -10.63991 | -40.85562 | 26654 ft | 460 kts | 200° |
| 2026-04-26 15:05 | -10.68030 | -40.87059 | 26999 ft | 463 kts | 200° |
| 2026-04-26 15:05 | -10.71060 | -40.88180 | 27254 ft | 464 kts | 200° |
| 2026-04-26 15:06 | -10.74113 | -40.89307 | 27500 ft | 466 kts | 200° |
| 2026-04-26 15:06 | -10.77168 | -40.90434 | 27730 ft | 468 kts | 200° |
| 2026-04-26 15:06 | -10.80233 | -40.91565 | 28019 ft | 469 kts | 200° |
| 2026-04-26 15:06 | -10.83253 | -40.92679 | 28364 ft | 468 kts | 200° |
| 2026-04-26 15:07 | -10.89355 | -40.94929 | 29023 ft | 466 kts | 200° |
| 2026-04-26 15:07 | -10.92407 | -40.96057 | 29349 ft | 466 kts | 200° |
| 2026-04-26 15:07 | -10.95451 | -40.97186 | 29661 ft | 465 kts | 200° |
| 2026-04-26 15:08 | -10.98486 | -40.98313 | 29977 ft | 464 kts | 200° |
| 2026-04-26 15:08 | -11.01527 | -40.99440 | 30293 ft | 464 kts | 200° |
| 2026-04-26 15:08 | -11.04562 | -41.00565 | 30601 ft | 463 kts | 200° |
| 2026-04-26 15:08 | -11.07586 | -41.01689 | 30908 ft | 463 kts | 200° |
| 2026-04-26 15:09 | -11.10568 | -41.02794 | 31203 ft | 462 kts | 200° |
| 2026-04-26 15:09 | -11.13591 | -41.03915 | 31501 ft | 462 kts | 200° |
| 2026-04-26 15:09 | -11.16606 | -41.05035 | 31795 ft | 461 kts | 200° |
| 2026-04-26 15:09 | -11.19625 | -41.06157 | 32070 ft | 461 kts | 200° |
| 2026-04-26 15:10 | -11.22641 | -41.07277 | 32348 ft | 461 kts | 200° |
| 2026-04-26 15:10 | -11.24638 | -41.08018 | 32536 ft | 460 kts | 200° |
| 2026-04-26 15:10 | -11.28669 | -41.09511 | 32917 ft | 460 kts | 200° |
| 2026-04-26 15:10 | -11.31667 | -41.10622 | 33184 ft | 459 kts | 200° |
| 2026-04-26 15:11 | -11.34678 | -41.11738 | 33435 ft | 459 kts | 200° |
| 2026-04-26 15:11 | -11.37673 | -41.12848 | 33688 ft | 459 kts | 200° |
| 2026-04-26 15:11 | -11.40639 | -41.13948 | 33947 ft | 459 kts | 200° |
| 2026-04-26 15:11 | -11.43640 | -41.15062 | 34224 ft | 458 kts | 200° |
| 2026-04-26 15:12 | -11.46636 | -41.16174 | 34481 ft | 458 kts | 200° |
| 2026-04-26 15:12 | -11.49632 | -41.17284 | 34741 ft | 457 kts | 200° |
| 2026-04-26 15:12 | -11.52616 | -41.18391 | 34969 ft | 457 kts | 200° |
| 2026-04-26 15:12 | -11.55608 | -41.19500 | 35204 ft | 457 kts | 200° |
| 2026-04-26 15:13 | -11.58593 | -41.20610 | 35432 ft | 457 kts | 200° |
| 2026-04-26 15:13 | -11.61583 | -41.21720 | 35645 ft | 456 kts | 200° |
| 2026-04-26 15:13 | -11.64562 | -41.22830 | 35862 ft | 455 kts | 200° |
| 2026-04-26 15:13 | -11.67539 | -41.23937 | 35994 ft | 456 kts | 200° |
| 2026-04-26 15:14 | -11.73511 | -41.26159 | 36010 ft | 457 kts | 200° |
| 2026-04-26 15:14 | -11.79460 | -41.28384 | 36010 ft | 458 kts | 200° |
| 2026-04-26 15:15 | -11.85438 | -41.30610 | 36012 ft | 458 kts | 200° |
| 2026-04-26 15:15 | -11.91424 | -41.32837 | 36008 ft | 458 kts | 200° |
| 2026-04-26 15:16 | -11.97404 | -41.35069 | 36008 ft | 458 kts | 200° |
| 2026-04-26 15:16 | -12.03386 | -41.37304 | 36010 ft | 458 kts | 200° |
| 2026-04-26 15:17 | -12.08403 | -41.39175 | 36011 ft | 458 kts | 200° |
| 2026-04-26 15:17 | -12.15353 | -41.41769 | 36012 ft | 457 kts | 200° |
| 2026-04-26 15:18 | -12.21344 | -41.44006 | 36012 ft | 457 kts | 200° |
| 2026-04-26 15:18 | -12.27326 | -41.46235 | 36010 ft | 458 kts | 200° |
| 2026-04-26 15:19 | -12.33278 | -41.48459 | 36016 ft | 458 kts | 200° |
| 2026-04-26 15:19 | -12.39256 | -41.50700 | 36021 ft | 457 kts | 200° |
| 2026-04-26 15:20 | -12.45231 | -41.52938 | 36020 ft | 457 kts | 200° |
| 2026-04-26 15:20 | -12.51206 | -41.55170 | 36018 ft | 457 kts | 200° |
| 2026-04-26 15:21 | -12.57184 | -41.57410 | 36018 ft | 457 kts | 200° |
| 2026-04-26 15:21 | -12.63158 | -41.59652 | 36011 ft | 457 kts | 200° |
| 2026-04-26 15:22 | -12.69138 | -41.61894 | 36009 ft | 458 kts | 200° |
| 2026-04-26 15:22 | -12.75118 | -41.64141 | 36009 ft | 458 kts | 200° |
| 2026-04-26 15:23 | -12.81109 | -41.66382 | 36008 ft | 458 kts | 200° |
| 2026-04-26 15:23 | -12.87111 | -41.68639 | 36004 ft | 459 kts | 200° |
| 2026-04-26 15:24 | -12.93108 | -41.70898 | 36010 ft | 459 kts | 200° |
| 2026-04-26 15:24 | -12.99062 | -41.73146 | 36011 ft | 459 kts | 200° |
| 2026-04-26 15:25 | -13.04095 | -41.75036 | 36014 ft | 459 kts | 200° |
| 2026-04-26 15:25 | -13.11074 | -41.77650 | 36012 ft | 460 kts | 200° |
| 2026-04-26 15:26 | -13.17084 | -41.79911 | 36014 ft | 460 kts | 200° |
| 2026-04-26 15:26 | -13.23092 | -41.82177 | 36012 ft | 460 kts | 200° |
| 2026-04-26 15:27 | -13.29105 | -41.84449 | 36021 ft | 460 kts | 200° |
| 2026-04-26 15:28 | -13.41439 | -41.89096 | 36012 ft | 461 kts | 200° |
| 2026-04-26 15:28 | -13.47474 | -41.91372 | 36019 ft | 461 kts | 200° |
| 2026-04-26 15:29 | -13.53461 | -41.93637 | 36021 ft | 461 kts | 200° |
| 2026-04-26 15:30 | -13.65493 | -41.98186 | 36032 ft | 459 kts | 200° |
| 2026-04-26 15:30 | -13.71496 | -42.00457 | 36032 ft | 459 kts | 200° |
| 2026-04-26 15:31 | -13.80459 | -42.03857 | 36032 ft | 457 kts | 200° |
| 2026-04-26 15:32 | -13.87390 | -42.06488 | 36028 ft | 456 kts | 200° |
| 2026-04-26 15:32 | -13.95325 | -42.09497 | 36024 ft | 455 kts | 200° |
| 2026-04-26 15:33 | -14.01272 | -42.11758 | 36021 ft | 455 kts | 200° |
| 2026-04-26 15:33 | -14.07212 | -42.14012 | 36018 ft | 455 kts | 200° |
| 2026-04-26 15:34 | -14.13149 | -42.16269 | 36016 ft | 455 kts | 200° |
| 2026-04-26 15:34 | -14.19090 | -42.18527 | 36014 ft | 455 kts | 200° |
| 2026-04-26 15:35 | -14.24997 | -42.20776 | 36010 ft | 455 kts | 200° |
| 2026-04-26 15:35 | -14.30938 | -42.23042 | 36006 ft | 455 kts | 200° |
| 2026-04-26 15:36 | -14.36887 | -42.25284 | 36010 ft | 456 kts | 199° |
| 2026-04-26 15:36 | -14.42960 | -42.27179 | 36010 ft | 456 kts | 195° |
| 2026-04-26 15:37 | -14.49088 | -42.28860 | 36012 ft | 456 kts | 195° |
| 2026-04-26 15:37 | -14.55209 | -42.30573 | 36011 ft | 456 kts | 196° |
| 2026-04-26 15:38 | -14.61311 | -42.32361 | 36012 ft | 456 kts | 196° |
| 2026-04-26 15:38 | -14.66375 | -42.33870 | 36010 ft | 456 kts | 196° |
| 2026-04-26 15:39 | -14.72471 | -42.35682 | 36007 ft | 456 kts | 196° |
| 2026-04-26 15:39 | -14.77547 | -42.37179 | 36005 ft | 456 kts | 196° |
| 2026-04-26 15:40 | -14.84669 | -42.39272 | 36003 ft | 456 kts | 196° |
| 2026-04-26 15:40 | -14.90776 | -42.41078 | 36004 ft | 457 kts | 196° |
| 2026-04-26 15:41 | -14.96891 | -42.42888 | 36004 ft | 457 kts | 196° |
| 2026-04-26 15:41 | -15.03001 | -42.44696 | 36003 ft | 457 kts | 196° |
| 2026-04-26 15:42 | -15.09097 | -42.46493 | 36002 ft | 458 kts | 196° |
| 2026-04-26 15:42 | -15.15222 | -42.48301 | 36006 ft | 458 kts | 196° |
| 2026-04-26 15:43 | -15.21355 | -42.50107 | 36008 ft | 458 kts | 196° |
| 2026-04-26 15:44 | -15.30539 | -42.52839 | 36015 ft | 458 kts | 196° |
| 2026-04-26 15:44 | -15.39731 | -42.55567 | 36017 ft | 457 kts | 196° |
| 2026-04-26 15:45 | -15.48888 | -42.58269 | 36018 ft | 457 kts | 196° |
| 2026-04-26 15:46 | -15.58059 | -42.60995 | 36016 ft | 457 kts | 196° |
| 2026-04-26 15:46 | -15.63149 | -42.62517 | 36016 ft | 457 kts | 196° |
| 2026-04-26 15:47 | -15.73357 | -42.65549 | 36016 ft | 457 kts | 196° |
| 2026-04-26 15:48 | -15.79474 | -42.67374 | 36011 ft | 457 kts | 196° |
| 2026-04-26 15:48 | -15.85568 | -42.69192 | 36010 ft | 458 kts | 196° |
| 2026-04-26 15:49 | -15.91694 | -42.71017 | 36009 ft | 458 kts | 196° |
| 2026-04-26 15:49 | -15.97827 | -42.72841 | 36015 ft | 458 kts | 196° |
| 2026-04-26 15:50 | -16.03953 | -42.74668 | 36017 ft | 458 kts | 196° |
| 2026-04-26 15:50 | -16.10073 | -42.76495 | 36017 ft | 458 kts | 196° |
| 2026-04-26 15:51 | -16.16191 | -42.78323 | 36020 ft | 457 kts | 196° |
| 2026-04-26 15:51 | -16.22308 | -42.80153 | 36017 ft | 457 kts | 196° |
| 2026-04-26 15:52 | -16.28428 | -42.81986 | 36016 ft | 457 kts | 196° |
| 2026-04-26 15:52 | -16.34546 | -42.83815 | 36018 ft | 457 kts | 196° |
| 2026-04-26 15:53 | -16.40657 | -42.85648 | 36019 ft | 457 kts | 196° |
| 2026-04-26 15:53 | -16.46768 | -42.87485 | 36019 ft | 457 kts | 196° |
| 2026-04-26 15:54 | -16.52885 | -42.89316 | 36014 ft | 457 kts | 196° |
| 2026-04-26 15:54 | -16.58964 | -42.91139 | 36009 ft | 457 kts | 196° |
| 2026-04-26 15:55 | -16.65079 | -42.92967 | 36014 ft | 457 kts | 196° |
| 2026-04-26 15:55 | -16.71189 | -42.94804 | 36015 ft | 457 kts | 196° |
| 2026-04-26 15:56 | -16.77304 | -42.96654 | 36015 ft | 457 kts | 196° |
| 2026-04-26 15:56 | -16.83414 | -42.98503 | 36014 ft | 457 kts | 196° |
| 2026-04-26 15:57 | -16.89538 | -43.00337 | 36016 ft | 457 kts | 196° |
| 2026-04-26 15:57 | -16.95655 | -43.02174 | 36014 ft | 457 kts | 196° |
| 2026-04-26 15:58 | -17.01769 | -43.04020 | 36014 ft | 457 kts | 196° |
| 2026-04-26 15:58 | -17.07849 | -43.05861 | 36019 ft | 457 kts | 196° |
| 2026-04-26 15:59 | -17.13966 | -43.07714 | 36019 ft | 457 kts | 196° |
| 2026-04-26 15:59 | -17.20075 | -43.09561 | 36014 ft | 457 kts | 196° |
| 2026-04-26 16:00 | -17.26182 | -43.11403 | 36014 ft | 457 kts | 196° |
| 2026-04-26 16:00 | -17.32264 | -43.13234 | 36018 ft | 457 kts | 196° |
| 2026-04-26 16:01 | -17.38373 | -43.15090 | 36017 ft | 457 kts | 196° |
| 2026-04-26 16:01 | -17.44484 | -43.16941 | 36015 ft | 457 kts | 196° |
| 2026-04-26 16:02 | -17.50592 | -43.18801 | 36010 ft | 457 kts | 197° |
| 2026-04-26 16:02 | -17.56316 | -43.21632 | 36011 ft | 456 kts | 215° |
| 2026-04-26 16:03 | -17.61303 | -43.25737 | 36006 ft | 456 kts | 219° |
| 2026-04-26 16:03 | -17.66238 | -43.29856 | 36006 ft | 456 kts | 219° |
| 2026-04-26 16:04 | -17.71212 | -43.33999 | 36010 ft | 456 kts | 219° |
| 2026-04-26 16:04 | -17.76182 | -43.38154 | 36011 ft | 457 kts | 219° |
| 2026-04-26 16:05 | -17.81148 | -43.42315 | 36010 ft | 457 kts | 219° |
| 2026-04-26 16:05 | -17.86112 | -43.46474 | 36015 ft | 457 kts | 219° |
| 2026-04-26 16:06 | -17.91081 | -43.50630 | 36016 ft | 457 kts | 218° |
| 2026-04-26 16:06 | -17.96052 | -43.54782 | 36019 ft | 456 kts | 219° |
| 2026-04-26 16:07 | -18.01009 | -43.58951 | 36019 ft | 456 kts | 219° |
| 2026-04-26 16:07 | -18.05964 | -43.63118 | 36011 ft | 456 kts | 219° |
| 2026-04-26 16:08 | -18.10929 | -43.67288 | 36007 ft | 457 kts | 219° |
| 2026-04-26 16:08 | -18.15871 | -43.71440 | 36005 ft | 458 kts | 219° |
| 2026-04-26 16:09 | -18.20840 | -43.75629 | 36004 ft | 458 kts | 219° |
| 2026-04-26 16:09 | -18.25814 | -43.79824 | 36005 ft | 459 kts | 219° |
| 2026-04-26 16:10 | -18.30796 | -43.84024 | 36005 ft | 459 kts | 219° |
| 2026-04-26 16:10 | -18.35779 | -43.88230 | 36007 ft | 459 kts | 219° |
| 2026-04-26 16:11 | -18.40763 | -43.92438 | 36013 ft | 459 kts | 219° |
| 2026-04-26 16:11 | -18.45751 | -43.96649 | 36013 ft | 459 kts | 219° |
| 2026-04-26 16:12 | -18.50732 | -44.00852 | 36017 ft | 459 kts | 219° |
| 2026-04-26 16:12 | -18.58167 | -44.07147 | 36030 ft | 458 kts | 219° |
| 2026-04-26 16:13 | -18.63130 | -44.11341 | 36030 ft | 457 kts | 219° |
| 2026-04-26 16:13 | -18.68077 | -44.15537 | 36028 ft | 456 kts | 219° |
| 2026-04-26 16:14 | -18.73016 | -44.19728 | 36026 ft | 456 kts | 219° |
| 2026-04-26 16:15 | -18.80434 | -44.26032 | 36021 ft | 455 kts | 219° |
| 2026-04-26 16:15 | -18.85361 | -44.30223 | 36019 ft | 455 kts | 219° |
| 2026-04-26 16:16 | -18.92767 | -44.36524 | 36016 ft | 455 kts | 219° |
| 2026-04-26 16:16 | -18.97670 | -44.40700 | 36013 ft | 456 kts | 219° |
| 2026-04-26 16:17 | -19.02605 | -44.44911 | 36014 ft | 456 kts | 219° |
| 2026-04-26 16:17 | -19.07547 | -44.49140 | 36011 ft | 456 kts | 219° |
| 2026-04-26 16:18 | -19.14920 | -44.55443 | 36013 ft | 456 kts | 219° |
| 2026-04-26 16:19 | -19.22327 | -44.61775 | 36016 ft | 456 kts | 219° |
| 2026-04-26 16:20 | -19.29735 | -44.68109 | 36017 ft | 456 kts | 219° |
| 2026-04-26 16:20 | -19.37129 | -44.74449 | 36017 ft | 456 kts | 219° |
| 2026-04-26 16:21 | -19.42058 | -44.78675 | 36016 ft | 456 kts | 219° |
| 2026-04-26 16:21 | -19.46996 | -44.82907 | 36015 ft | 456 kts | 219° |
| 2026-04-26 16:22 | -19.51931 | -44.87136 | 36017 ft | 456 kts | 219° |
| 2026-04-26 16:22 | -19.56359 | -44.90951 | 36018 ft | 456 kts | 219° |
| 2026-04-26 16:23 | -19.61153 | -44.95105 | 36017 ft | 456 kts | 219° |
| 2026-04-26 16:23 | -19.66073 | -44.99365 | 36016 ft | 456 kts | 219° |
| 2026-04-26 16:24 | -19.70997 | -45.03609 | 36016 ft | 456 kts | 219° |
| 2026-04-26 16:24 | -19.75923 | -45.07862 | 36015 ft | 456 kts | 219° |
| 2026-04-26 16:25 | -19.80570 | -45.11887 | 36016 ft | 456 kts | 219° |
| 2026-04-26 16:25 | -19.85491 | -45.16155 | 36017 ft | 456 kts | 219° |
| 2026-04-26 16:26 | -19.89577 | -45.19697 | 36015 ft | 456 kts | 219° |
| 2026-04-26 16:26 | -19.95328 | -45.24689 | 36011 ft | 457 kts | 219° |
| 2026-04-26 16:27 | -20.00248 | -45.28957 | 36011 ft | 457 kts | 219° |
| 2026-04-26 16:27 | -20.05173 | -45.33237 | 36011 ft | 457 kts | 219° |
| 2026-04-26 16:28 | -20.09264 | -45.36795 | 36014 ft | 457 kts | 219° |
| 2026-04-26 16:28 | -20.14187 | -45.41076 | 36016 ft | 457 kts | 219° |
| 2026-04-26 16:29 | -20.19113 | -45.45373 | 36018 ft | 457 kts | 219° |
| 2026-04-26 16:29 | -20.24007 | -45.49640 | 36018 ft | 457 kts | 219° |
| 2026-04-26 16:30 | -20.28929 | -45.53930 | 36019 ft | 457 kts | 219° |
| 2026-04-26 16:30 | -20.33844 | -45.58218 | 36020 ft | 457 kts | 219° |
| 2026-04-26 16:31 | -20.38394 | -45.62202 | 36018 ft | 457 kts | 219° |
| 2026-04-26 16:31 | -20.43308 | -45.66509 | 36018 ft | 457 kts | 219° |
| 2026-04-26 16:32 | -20.48217 | -45.70807 | 36018 ft | 457 kts | 219° |
| 2026-04-26 16:32 | -20.53126 | -45.75109 | 36015 ft | 457 kts | 219° |
| 2026-04-26 16:33 | -20.57995 | -45.79390 | 36016 ft | 457 kts | 219° |
| 2026-04-26 16:33 | -20.62902 | -45.83700 | 36016 ft | 457 kts | 219° |
| 2026-04-26 16:34 | -20.67814 | -45.88020 | 36011 ft | 457 kts | 219° |
| 2026-04-26 16:34 | -20.72720 | -45.92342 | 36015 ft | 457 kts | 219° |
| 2026-04-26 16:35 | -20.77631 | -45.96657 | 36017 ft | 457 kts | 219° |
| 2026-04-26 16:35 | -20.82543 | -46.00976 | 36017 ft | 457 kts | 219° |
| 2026-04-26 16:36 | -20.87447 | -46.05301 | 36014 ft | 457 kts | 220° |
| 2026-04-26 16:36 | -20.92350 | -46.09632 | 36017 ft | 457 kts | 220° |
| 2026-04-26 16:37 | -20.97413 | -46.13732 | 36018 ft | 457 kts | 210° |
| 2026-04-26 16:37 | -21.03254 | -46.16289 | 36014 ft | 457 kts | 198° |
| 2026-04-26 16:38 | -21.09292 | -46.18424 | 36010 ft | 457 kts | 198° |
| 2026-04-26 16:38 | -21.15040 | -46.20475 | 36010 ft | 458 kts | 199° |
| 2026-04-26 16:39 | -21.21098 | -46.22598 | 36012 ft | 458 kts | 198° |
| 2026-04-26 16:39 | -21.27130 | -46.24627 | 36015 ft | 458 kts | 197° |
| 2026-04-26 16:40 | -21.33029 | -46.26609 | 36017 ft | 458 kts | 198° |
| 2026-04-26 16:40 | -21.39100 | -46.28674 | 36017 ft | 458 kts | 198° |
| 2026-04-26 16:41 | -21.45175 | -46.30747 | 36015 ft | 458 kts | 198° |
| 2026-04-26 16:41 | -21.51243 | -46.32822 | 36017 ft | 458 kts | 198° |
| 2026-04-26 16:42 | -21.57317 | -46.34902 | 36016 ft | 458 kts | 198° |
| 2026-04-26 16:42 | -21.63355 | -46.36970 | 36013 ft | 458 kts | 198° |
| 2026-04-26 16:43 | -21.69422 | -46.39080 | 36009 ft | 459 kts | 199° |
| 2026-04-26 16:43 | -21.75466 | -46.41311 | 36011 ft | 459 kts | 199° |
| 2026-04-26 16:44 | -21.81489 | -46.43563 | 36011 ft | 459 kts | 199° |
| 2026-04-26 16:44 | -21.87534 | -46.45795 | 36006 ft | 460 kts | 199° |
| 2026-04-26 16:45 | -21.93607 | -46.48020 | 36003 ft | 460 kts | 199° |
| 2026-04-26 16:45 | -21.96639 | -46.49133 | 35894 ft | 461 kts | 199° |
| 2026-04-26 16:45 | -21.99640 | -46.50237 | 35428 ft | 462 kts | 199° |
| 2026-04-26 16:46 | -22.02711 | -46.51369 | 34485 ft | 467 kts | 199° |
| 2026-04-26 16:46 | -22.05763 | -46.52495 | 33573 ft | 460 kts | 199° |
| 2026-04-26 16:46 | -22.08801 | -46.53616 | 32563 ft | 464 kts | 199° |
| 2026-04-26 16:46 | -22.11874 | -46.54749 | 31545 ft | 469 kts | 199° |
| 2026-04-26 16:47 | -22.14988 | -46.55898 | 30491 ft | 474 kts | 199° |
| 2026-04-26 16:47 | -22.18137 | -46.57060 | 29305 ft | 481 kts | 199° |
| 2026-04-26 16:47 | -22.21322 | -46.58237 | 28119 ft | 486 kts | 199° |
| 2026-04-26 16:47 | -22.24525 | -46.59418 | 27099 ft | 486 kts | 199° |
| 2026-04-26 16:48 | -22.27700 | -46.60589 | 25671 ft | 480 kts | 199° |
| 2026-04-26 16:48 | -22.30833 | -46.61747 | 24557 ft | 468 kts | 199° |
| 2026-04-26 16:48 | -22.33789 | -46.62841 | 24051 ft | 449 kts | 199° |
| 2026-04-26 16:48 | -22.36749 | -46.63940 | 23236 ft | 447 kts | 200° |
| 2026-04-26 16:49 | -22.39575 | -46.65318 | 22467 ft | 444 kts | 210° |
| 2026-04-26 16:49 | -22.42114 | -46.67185 | 21762 ft | 441 kts | 220° |
| 2026-04-26 16:49 | -22.44319 | -46.69491 | 21241 ft | 441 kts | 229° |
| 2026-04-26 16:49 | -22.46218 | -46.72088 | 20672 ft | 437 kts | 232° |
| 2026-04-26 16:50 | -22.48058 | -46.74683 | 20109 ft | 434 kts | 233° |
| 2026-04-26 16:50 | -22.49887 | -46.77271 | 19561 ft | 430 kts | 233° |
| 2026-04-26 16:50 | -22.51692 | -46.79832 | 19008 ft | 427 kts | 233° |
| 2026-04-26 16:50 | -22.53485 | -46.82373 | 18463 ft | 423 kts | 233° |
| 2026-04-26 16:51 | -22.55263 | -46.84893 | 17915 ft | 420 kts | 233° |
| 2026-04-26 16:51 | -22.57030 | -46.87395 | 17388 ft | 417 kts | 233° |
| 2026-04-26 16:51 | -22.58788 | -46.89882 | 16850 ft | 414 kts | 233° |
| 2026-04-26 16:51 | -22.60524 | -46.92345 | 16325 ft | 410 kts | 233° |
| 2026-04-26 16:52 | -22.62223 | -46.94757 | 15801 ft | 407 kts | 233° |
| 2026-04-26 16:52 | -22.63428 | -46.96354 | 15452 ft | 405 kts | 227° |
| 2026-04-26 16:52 | -22.66265 | -46.98936 | 14765 ft | 401 kts | 212° |
| 2026-04-26 16:52 | -22.68718 | -47.00340 | 14267 ft | 398 kts | 205° |
| 2026-04-26 16:53 | -22.71205 | -47.01618 | 13619 ft | 395 kts | 206° |
| 2026-04-26 16:53 | -22.73665 | -47.02888 | 12860 ft | 381 kts | 206° |
| 2026-04-26 16:53 | -22.75969 | -47.04081 | 12700 ft | 352 kts | 206° |
| 2026-04-26 16:53 | -22.78092 | -47.05182 | 12571 ft | 326 kts | 206° |
| 2026-04-26 16:54 | -22.80078 | -47.06212 | 12301 ft | 309 kts | 206° |
| 2026-04-26 16:54 | -22.81997 | -47.07209 | 11768 ft | 303 kts | 206° |
| 2026-04-26 16:54 | -22.83887 | -47.08193 | 11169 ft | 300 kts | 206° |
| 2026-04-26 16:54 | -22.85765 | -47.09160 | 10548 ft | 297 kts | 203° |
| 2026-04-26 16:55 | -22.87744 | -47.09645 | 10115 ft | 289 kts | 180° |
| 2026-04-26 16:55 | -22.89730 | -47.09317 | 10009 ft | 291 kts | 160° |
| 2026-04-26 16:55 | -22.91472 | -47.08266 | 9618 ft | 290 kts | 139° |
| 2026-04-26 16:55 | -22.92804 | -47.06625 | 9240 ft | 291 kts | 128° |
| 2026-04-26 16:56 | -22.95287 | -47.03173 | 8463 ft | 289 kts | 128° |
| 2026-04-26 16:56 | -22.96526 | -47.01461 | 8074 ft | 288 kts | 128° |
| 2026-04-26 16:56 | -22.97767 | -46.99752 | 7678 ft | 287 kts | 128° |
| 2026-04-26 16:57 | -22.98988 | -46.98073 | 7296 ft | 286 kts | 128° |
| 2026-04-26 16:57 | -23.00268 | -46.96436 | 6899 ft | 284 kts | 140° |
| 2026-04-26 16:57 | -23.03910 | -46.95844 | 6122 ft | 276 kts | 207° |
| 2026-04-26 16:58 | -23.05477 | -46.97020 | 5730 ft | 273 kts | 218° |
| 2026-04-26 16:58 | -23.06488 | -46.97878 | 5469 ft | 273 kts | 219° |
| 2026-04-26 16:58 | -23.08945 | -47.01562 | 4574 ft | 267 kts | 271° |
| 2026-04-26 16:59 | -23.08462 | -47.03435 | 4233 ft | 252 kts | 300° |
| 2026-04-26 16:59 | -23.06408 | -47.06241 | 3598 ft | 226 kts | 313° |
| 2026-04-26 17:00 | -23.04400 | -47.08655 | 3049 ft | 201 kts | 311° |
| 2026-04-26 17:00 | -23.02741 | -47.10796 | 2529 ft | 172 kts | 309° |
| 2026-04-26 17:00 | -23.02014 | -47.11738 | 2323 ft | 155 kts | 312° |
| 2026-04-26 17:01 | -23.01349 | -47.12596 | 2157 ft | 136 kts | 306° |
| 2026-04-26 17:01 | -23.00934 | -47.13181 | 2154 ft | 58 kts | 308° |
| 2026-04-26 17:01 | -23.00798 | -47.13377 | 2154 ft | 18 kts | 298° |
| 2026-04-26 17:01 | -23.00763 | -47.13479 | 2153 ft | 10 kts | 286° |
| 2026-04-26 17:02 | -23.00750 | -47.13546 | 2155 ft | 6 kts | 276° |
| 2026-04-26 17:02 | -23.00748 | -47.13571 | 2156 ft | 0 kts | 276° |
| 2026-04-26 17:02 | -23.00745 | -47.13602 | 2156 ft | 13 kts | 276° |
| 2026-04-26 17:02 | -23.00735 | -47.13702 | 2157 ft | 14 kts | 277° |
| 2026-04-26 17:03 | -23.00723 | -47.13806 | 2153 ft | 14 kts | 277° |
| 2026-04-26 17:03 | -23.00707 | -47.13919 | 2155 ft | 16 kts | 284° |
| 2026-04-26 17:03 | -23.00660 | -47.14033 | 2153 ft | 17 kts | 302° |
| 2026-04-26 17:03 | -23.00584 | -47.14144 | 2154 ft | 19 kts | 308° |
| 2026-04-26 17:04 | -23.00500 | -47.14263 | 2155 ft | 21 kts | 308° |
| 2026-04-26 17:04 | -23.00410 | -47.14388 | 2152 ft | 22 kts | 308° |
| 2026-04-26 17:04 | -23.00321 | -47.14512 | 2152 ft | 17 kts | 308° |
| 2026-04-26 17:04 | -23.00264 | -47.14611 | 2152 ft | 14 kts | 266° |
| 2026-04-26 17:05 | -23.00332 | -47.14686 | 2152 ft | 13 kts | 218° |
| 2026-04-26 17:05 | -23.00384 | -47.14730 | 2153 ft | 8 kts | 218° |
| 2026-04-26 17:05 | -23.00425 | -47.14765 | 2152 ft | 6 kts | 219° |
| 2026-04-26 17:05 | -23.00438 | -47.14777 | 2153 ft | 3 kts | 219° |
| 2026-04-26 17:06 | -23.00449 | -47.14787 | 2151 ft | 1 kts | 218° |
| 2026-04-26 17:06 | -23.00450 | -47.14787 | 2151 ft | 0 kts | 218° |